Vladimir, Russia
Current Conditions -  °F | °C
As of 1:00 PM on Wednesday 26 Nov 2014 (Local Time) from UUDL Reporting Station
Overcast Overcast  
Wind Chill: 19°   Ceiling: 1000
Heat Index: 25°   Visibility: 6mi
Dew Point: 21°   Wind: 4mph
Humidity: 86%   Direction: 260°W
Pressure: 30.42"   Gusts: NA
Location:  56.14°N, 40.4°E
Report Text: UUDL 261000Z 26002MPS 9999 OVC010 M04/M06 Q1030 NOSIG RMKQFE764 23000060
Loading
Personal Weather Stations






























Interactive Weather Map New forecast layout! Learn more

10-Day Weather Forecast

Advertisements
Track Severe Weather on mobile